Time;durP1;ratioP1;P1;durP2;ratioP2;P2;SDS_P1;SDS_P2;PMS_P1;PMS_P2;Temp;Humidity;BMP_temperature;BMP_pressure;BME280_temperature;BME280_humidity;BME280_pressure;Samples;Min_cycle;Max_cycle;Signal;HPM_P1;HPM_P2
2023/07/22 00:01:19;;;;;;;5.82;4.28;;;19.30;99.90;;;;;;5058041;28;20021;-72
2023/07/22 00:03:44;;;;;;;5.25;4.45;;;19.30;99.90;;;;;;5058116;28;20036;-73
2023/07/22 00:06:10;;;;;;;6.68;4.70;;;19.30;99.90;;;;;;5057931;28;20051;-73
2023/07/22 00:08:38;;;;;;;5.70;3.95;;;19.30;99.90;;;;;;5056404;28;20090;-72
2023/07/22 00:11:06;;;;;;;4.97;4.15;;;19.30;99.90;;;;;;5057711;28;20078;-72
2023/07/22 00:13:32;;;;;;;5.03;4.05;;;19.30;99.90;;;;;;5057638;28;20029;-73
2023/07/22 00:16:03;;;;;;;10.98;4.53;;;19.30;99.90;;;;;;5057624;28;20063;-72
2023/07/22 00:18:30;;;;;;;7.85;3.80;;;19.30;99.90;;;;;;5056333;28;20029;-73
2023/07/22 00:20:56;;;;;;;3.95;3.53;;;19.30;99.90;;;;;;5057545;28;20063;-72
2023/07/22 00:23:22;;;;;;;7.53;4.00;;;19.20;99.90;;;;;;5057479;28;20028;-73
2023/07/22 00:25:48;;;;;;;5.93;3.65;;;19.20;99.90;;;;;;5057632;28;20134;-73
2023/07/22 00:28:14;;;;;;;6.93;4.65;;;19.20;99.90;;;;;;5057160;28;20069;-74
2023/07/22 00:30:40;;;;;;;9.35;3.72;;;19.20;99.90;;;;;;5057452;28;20021;-74
2023/07/22 00:33:05;;;;;;;5.57;4.05;;;19.20;99.90;;;;;;5057544;28;20023;-74
2023/07/22 00:35:32;;;;;;;5.40;3.88;;;19.20;99.90;;;;;;5057504;28;20027;-73
2023/07/22 00:37:58;;;;;;;7.05;4.35;;;19.20;99.90;;;;;;5057316;28;20025;-73
2023/07/22 00:40:24;;;;;;;5.63;3.92;;;19.20;99.90;;;;;;5057429;28;20032;-73
2023/07/22 00:42:50;;;;;;;7.07;3.60;;;19.20;99.90;;;;;;5057108;28;20028;-73
2023/07/22 00:45:15;;;;;;;4.93;3.83;;;19.20;99.90;;;;;;5057320;28;20017;-72
2023/07/22 00:47:41;;;;;;;6.05;3.97;;;19.10;99.90;;;;;;5057256;28;20116;-73
2023/07/22 00:50:08;;;;;;;7.20;3.80;;;19.10;99.90;;;;;;5057200;28;20013;-73
2023/07/22 00:52:39;;;;;;;5.00;3.85;;;19.10;99.90;;;;;;5055654;28;20029;-74
2023/07/22 00:55:06;;;;;;;6.75;3.95;;;19.10;99.90;;;;;;5057202;28;20020;-72
2023/07/22 00:57:32;;;;;;;5.38;4.10;;;19.10;99.90;;;;;;5055640;28;20025;-73
2023/07/22 00:59:58;;;;;;;6.05;3.65;;;19.10;99.90;;;;;;5056850;28;20024;-72
2023/07/22 01:02:24;;;;;;;5.18;3.85;;;19.10;99.90;;;;;;5056960;28;20056;-72
2023/07/22 01:04:51;;;;;;;8.77;4.20;;;19.10;99.90;;;;;;5056849;28;20051;-73
2023/07/22 01:07:19;;;;;;;5.50;4.10;;;19.00;99.90;;;;;;5056622;28;20115;-73
2023/07/22 01:09:45;;;;;;;5.53;4.30;;;19.10;99.90;;;;;;5055453;28;20413;-73
2023/07/22 01:12:11;;;;;;;5.10;3.92;;;19.00;99.90;;;;;;5055588;28;20029;-73
2023/07/22 01:14:38;;;;;;;5.47;3.50;;;19.00;99.90;;;;;;5055257;28;20045;-74
2023/07/22 01:17:06;;;;;;;5.18;3.63;;;18.90;99.90;;;;;;5056730;28;20024;-73
2023/07/22 01:19:32;;;;;;;6.97;3.65;;;18.90;99.90;;;;;;5055565;28;20029;-72
2023/07/22 01:22:00;;;;;;;5.40;3.60;;;18.80;99.90;;;;;;5054964;28;20037;-73
2023/07/22 01:24:30;;;;;;;6.63;3.67;;;18.80;99.90;;;;;;5056883;28;20100;-73
2023/07/22 01:26:56;;;;;;;4.40;3.40;;;18.80;99.90;;;;;;5055324;28;20036;-73
2023/07/22 01:29:23;;;;;;;5.47;4.20;;;18.70;99.90;;;;;;5056706;28;20024;-72
2023/07/22 01:31:51;;;;;;;7.85;4.03;;;18.70;99.90;;;;;;5056591;28;20021;-73
2023/07/22 01:34:16;;;;;;;5.63;4.18;;;18.70;99.90;;;;;;5056944;28;20481;-73
2023/07/22 01:36:43;;;;;;;6.35;3.92;;;18.70;99.90;;;;;;5056489;28;20025;-73
2023/07/22 01:39:10;;;;;;;5.68;4.25;;;18.60;99.90;;;;;;5057117;28;20021;-73
2023/07/22 01:41:36;;;;;;;9.90;3.90;;;18.60;99.90;;;;;;5060605;28;20048;-72
2023/07/22 01:44:02;;;;;;;5.43;4.13;;;18.50;99.90;;;;;;5059429;28;20025;-73
2023/07/22 01:46:28;;;;;;;6.20;3.95;;;18.50;99.90;;;;;;5060673;28;20557;-73
2023/07/22 01:48:55;;;;;;;7.35;4.65;;;18.50;99.90;;;;;;5059306;28;20040;-73
2023/07/22 01:51:21;;;;;;;5.30;4.38;;;18.40;99.90;;;;;;5060469;28;20020;-73
2023/07/22 01:53:46;;;;;;;5.95;4.15;;;18.40;99.90;;;;;;5060364;28;20028;-73
2023/07/22 01:56:13;;;;;;;6.10;3.90;;;18.30;99.90;;;;;;5059148;28;20036;-73
2023/07/22 01:58:39;;;;;;;5.80;4.20;;;18.30;99.90;;;;;;5060473;28;20024;-72
2023/07/22 02:01:04;;;;;;;6.38;4.25;;;18.20;99.90;;;;;;5058869;28;20025;-73
2023/07/22 02:03:31;;;;;;;5.45;4.00;;;18.10;99.90;;;;;;5060695;28;20048;-73
2023/07/22 02:06:06;;;;;;;9.63;4.53;;;18.00;99.90;;;;;;5060228;28;20017;-73
2023/07/22 02:08:32;;;;;;;8.25;4.38;;;18.00;99.90;;;;;;5060116;28;20081;-73
2023/07/22 02:11:06;;;;;;;4.72;3.85;;;17.90;99.90;;;;;;5059965;28;20468;-73
2023/07/22 02:13:33;;;;;;;9.40;4.40;;;17.90;99.90;;;;;;5060065;28;20485;-73
2023/07/22 02:16:00;;;;;;;5.28;4.18;;;17.90;99.90;;;;;;5058619;28;20035;-73
2023/07/22 02:18:26;;;;;;;5.53;4.10;;;17.90;99.90;;;;;;5058838;28;20017;-73
2023/07/22 02:20:52;;;;;;;6.15;4.13;;;18.00;99.90;;;;;;5059813;28;20103;-74
2023/07/22 02:23:18;;;;;;;6.63;3.75;;;17.90;99.90;;;;;;5059825;28;20143;-72
2023/07/22 02:25:44;;;;;;;6.20;4.38;;;17.90;99.90;;;;;;5059872;28;20059;-73
2023/07/22 02:28:10;;;;;;;6.38;4.25;;;17.90;99.90;;;;;;5059809;28;20532;-73
2023/07/22 02:30:39;;;;;;;3.90;3.15;;;17.90;99.90;;;;;;5059796;28;20577;-74
2023/07/22 02:33:05;;;;;;;7.07;3.92;;;17.90;99.90;;;;;;5059549;28;20063;-73
2023/07/22 02:35:31;;;;;;;6.60;4.07;;;17.90;99.90;;;;;;5059780;28;20039;-73
2023/07/22 02:37:57;;;;;;;4.70;3.88;;;17.90;99.90;;;;;;5059604;28;20445;-73
2023/07/22 02:40:22;;;;;;;4.82;3.75;;;17.90;99.90;;;;;;5059699;28;20064;-73
2023/07/22 02:42:48;;;;;;;5.28;4.10;;;17.90;99.90;;;;;;5058082;28;20021;-73
2023/07/22 02:45:14;;;;;;;6.20;4.32;;;17.80;99.90;;;;;;5059571;28;20052;-73
2023/07/22 02:47:39;;;;;;;5.55;3.60;;;17.80;99.90;;;;;;5058146;28;20025;-73
2023/07/22 02:50:08;;;;;;;6.65;3.85;;;17.70;99.90;;;;;;5059228;28;20085;-73
2023/07/22 02:52:34;;;;;;;5.55;3.53;;;17.70;99.90;;;;;;5056799;28;20025;-73
2023/07/22 02:55:12;;;;;;;5.38;3.70;;;17.60;99.90;;;;;;5058101;28;20496;-73
2023/07/22 02:57:39;;;;;;;8.07;3.90;;;17.60;99.90;;;;;;5057977;28;20100;-73
2023/07/22 03:00:08;;;;;;;6.75;4.07;;;17.50;99.90;;;;;;5058031;28;20029;-73
2023/07/22 03:02:36;;;;;;;4.55;3.88;;;17.50;99.90;;;;;;5058768;28;20081;-72
2023/07/22 03:05:06;;;;;;;5.82;4.15;;;17.40;99.90;;;;;;5058920;28;20032;-73
2023/07/22 03:07:32;;;;;;;9.73;4.60;;;17.40;99.90;;;;;;5058274;28;20017;-73
2023/07/22 03:09:59;;;;;;;5.95;3.80;;;17.40;99.90;;;;;;5057805;28;20062;-73
2023/07/22 03:12:24;;;;;;;6.10;4.53;;;17.40;99.90;;;;;;5058851;28;20092;-73
2023/07/22 03:14:50;;;;;;;5.13;4.07;;;17.40;99.90;;;;;;5058528;28;20065;-73
2023/07/22 03:17:18;;;;;;;5.80;4.03;;;17.40;99.90;;;;;;5058791;28;20088;-74
2023/07/22 03:19:43;;;;;;;5.10;3.85;;;17.40;99.90;;;;;;5059100;28;20083;-73
2023/07/22 03:22:09;;;;;;;9.25;3.78;;;17.40;99.90;;;;;;5057044;28;20024;-73
2023/07/22 03:24:35;;;;;;;4.93;3.78;;;17.30;99.90;;;;;;5059002;28;20024;-73
2023/07/22 03:27:01;;;;;;;4.85;4.15;;;17.30;99.90;;;;;;5058568;28;20844;-73
2023/07/22 03:29:27;;;;;;;7.25;4.80;;;17.30;99.90;;;;;;5057335;28;20481;-72
2023/07/22 03:31:53;;;;;;;5.78;4.13;;;17.20;99.90;;;;;;5058481;28;20010;-73
2023/07/22 03:34:19;;;;;;;5.82;4.13;;;17.20;99.90;;;;;;5058839;28;20028;-73
2023/07/22 03:36:46;;;;;;;5.03;3.80;;;17.10;99.90;;;;;;5058399;28;20111;-73
2023/07/22 03:39:12;;;;;;;6.55;3.88;;;17.10;99.90;;;;;;5058649;28;20056;-73
2023/07/22 03:41:37;;;;;;;12.13;4.70;;;17.10;99.90;;;;;;5058183;28;20021;-73
2023/07/22 03:44:03;;;;;;;7.88;4.28;;;17.00;99.90;;;;;;5058540;28;20025;-73
2023/07/22 03:46:29;;;;;;;6.10;4.40;;;17.00;99.90;;;;;;5058382;28;20100;-73
2023/07/22 03:48:54;;;;;;;6.35;4.38;;;17.00;99.90;;;;;;5058471;28;20028;-73
2023/07/22 03:51:20;;;;;;;7.03;4.72;;;16.90;99.90;;;;;;5057024;28;20037;-72
2023/07/22 03:53:46;;;;;;;6.40;4.18;;;16.90;99.90;;;;;;5056787;28;20025;-73
2023/07/22 03:56:11;;;;;;;7.85;4.40;;;16.90;99.90;;;;;;5056892;28;20052;-72
2023/07/22 03:58:37;;;;;;;7.60;4.38;;;16.90;99.90;;;;;;5058128;28;20039;-73
2023/07/22 04:01:02;;;;;;;4.82;4.20;;;16.80;99.90;;;;;;5058027;28;20021;-73
2023/07/22 04:03:28;;;;;;;6.85;4.72;;;16.80;99.90;;;;;;5057812;28;20033;-72
2023/07/22 04:05:57;;;;;;;7.35;4.13;;;16.80;99.90;;;;;;5057986;28;20362;-73
2023/07/22 04:08:23;;;;;;;5.68;4.22;;;16.70;99.90;;;;;;5057800;28;20039;-73
2023/07/22 04:10:55;;;;;;;6.68;4.45;;;16.70;99.90;;;;;;5057777;28;20025;-73
2023/07/22 04:13:25;;;;;;;5.15;4.10;;;16.70;99.90;;;;;;5057836;28;20040;-74
2023/07/22 04:15:51;;;;;;;6.20;4.57;;;16.70;99.90;;;;;;5056196;28;20041;-72
2023/07/22 04:18:17;;;;;;;5.38;3.72;;;16.70;99.90;;;;;;5056848;28;20032;-73
2023/07/22 04:20:44;;;;;;;6.57;4.18;;;16.70;99.90;;;;;;5057616;28;20021;-74
2023/07/22 04:23:10;;;;;;;6.68;4.47;;;16.60;99.90;;;;;;5057418;28;20481;-73
2023/07/22 04:25:43;;;;;;;7.75;4.43;;;16.60;99.90;;;;;;5057529;28;20385;-72
2023/07/22 04:28:08;;;;;;;5.40;4.40;;;16.60;99.90;;;;;;5057552;28;20035;-73
2023/07/22 04:30:35;;;;;;;7.03;4.38;;;16.60;99.90;;;;;;5057409;28;20025;-73
2023/07/22 04:33:02;;;;;;;4.45;3.80;;;16.50;99.90;;;;;;5056151;28;20033;-74
2023/07/22 04:35:31;;;;;;;5.32;4.07;;;16.60;99.90;;;;;;5057366;28;20035;-73
2023/07/22 04:37:57;;;;;;;5.97;4.05;;;16.60;99.90;;;;;;5056066;28;20033;-72
2023/07/22 04:40:24;;;;;;;6.15;4.43;;;16.60;99.90;;;;;;5054244;28;20078;-72
2023/07/22 04:42:51;;;;;;;5.55;4.20;;;16.60;99.90;;;;;;5057220;28;20083;-73
2023/07/22 04:45:18;;;;;;;6.30;4.25;;;16.60;99.90;;;;;;5057370;28;20071;-72
2023/07/22 04:47:46;;;;;;;6.07;4.32;;;16.60;99.90;;;;;;5055920;28;20520;-73
2023/07/22 04:50:13;;;;;;;8.88;4.43;;;16.60;99.90;;;;;;5057201;28;20025;-73
2023/07/22 04:52:39;;;;;;;5.63;4.15;;;16.50;99.90;;;;;;5057022;28;20048;-73
2023/07/22 04:55:08;;;;;;;4.93;3.85;;;16.60;99.90;;;;;;5055662;28;20052;-73
2023/07/22 04:57:39;;;;;;;7.50;4.60;;;16.60;99.90;;;;;;5057212;28;20488;-72
2023/07/22 05:00:08;;;;;;;7.32;4.15;;;16.60;99.90;;;;;;5057172;28;20124;-73
2023/07/22 05:02:34;;;;;;;6.95;4.35;;;16.60;99.90;;;;;;5056981;28;20021;-73
2023/07/22 05:04:59;;;;;;;6.28;4.57;;;16.60;99.90;;;;;;5057107;28;20555;-73
2023/07/22 05:07:26;;;;;;;6.35;4.18;;;16.60;99.90;;;;;;5056609;28;20504;-73
2023/07/22 05:09:52;;;;;;;6.20;3.97;;;16.60;99.90;;;;;;5056984;28;20033;-72
2023/07/22 05:12:18;;;;;;;4.38;3.28;;;16.60;99.90;;;;;;5056889;28;20564;-73
2023/07/22 05:14:45;;;;;;;4.18;3.72;;;16.70;99.90;;;;;;5056004;28;20563;-73
2023/07/22 05:17:11;;;;;;;7.38;3.90;;;16.70;99.90;;;;;;5056726;28;20413;-73
2023/07/22 05:19:37;;;;;;;5.63;3.72;;;16.70;99.90;;;;;;5056993;28;20021;-73
2023/07/22 05:22:03;;;;;;;5.22;3.95;;;16.80;99.90;;;;;;5056533;28;20457;-73
2023/07/22 05:24:29;;;;;;;4.50;3.33;;;16.80;99.90;;;;;;5055555;28;20025;-73
2023/07/22 05:26:54;;;;;;;5.38;4.35;;;16.90;99.90;;;;;;5054810;28;20485;-73
2023/07/22 05:29:20;;;;;;;4.85;3.80;;;16.90;99.90;;;;;;5055291;28;20047;-73
2023/07/22 05:31:46;;;;;;;5.22;4.07;;;16.90;99.90;;;;;;5056348;28;20029;-73
2023/07/22 05:34:12;;;;;;;4.78;3.85;;;16.90;99.90;;;;;;5056868;28;20017;-72
2023/07/22 05:36:38;;;;;;;3.78;3.40;;;17.00;99.90;;;;;;5056466;28;20028;-72
2023/07/22 05:39:04;;;;;;;5.43;4.10;;;17.00;99.90;;;;;;5056621;28;20430;-72
2023/07/22 05:41:29;;;;;;;8.10;4.10;;;17.00;99.90;;;;;;5054987;28;20048;-73
2023/07/22 05:43:55;;;;;;;4.40;3.70;;;17.00;99.90;;;;;;5055256;28;20052;-72
2023/07/22 05:46:21;;;;;;;6.32;4.05;;;17.00;99.90;;;;;;5056452;28;20032;-73
2023/07/22 05:48:46;;;;;;;5.38;3.92;;;17.00;99.90;;;;;;5055259;28;20029;-72
2023/07/22 05:51:12;;;;;;;4.80;3.63;;;17.00;99.90;;;;;;5056483;28;20036;-72
2023/07/22 05:53:38;;;;;;;8.70;4.25;;;17.10;99.90;;;;;;5055144;28;20481;-72
2023/07/22 05:56:03;;;;;;;4.75;3.38;;;17.10;99.90;;;;;;5056509;28;20032;-73
2023/07/22 05:58:29;;;;;;;5.35;3.78;;;17.20;99.90;;;;;;5048494;28;20029;-72
2023/07/22 06:00:55;;;;;;;5.95;4.00;;;17.20;99.90;;;;;;5055014;28;20025;-72
2023/07/22 06:03:21;;;;;;;5.90;3.40;;;17.20;99.90;;;;;;5054852;28;20086;-73
2023/07/22 06:05:47;;;;;;;7.43;3.83;;;17.30;99.90;;;;;;5056328;28;20039;-72
2023/07/22 06:08:13;;;;;;;6.70;3.70;;;17.30;99.90;;;;;;5056144;28;20048;-73
2023/07/22 06:10:40;;;;;;;4.97;3.50;;;17.40;99.90;;;;;;5056319;28;20029;-73
2023/07/22 06:13:06;;;;;;;4.95;3.88;;;17.50;99.90;;;;;;5053521;28;20017;-73
2023/07/22 06:15:32;;;;;;;5.70;4.07;;;17.60;99.90;;;;;;5055748;28;20057;-73
2023/07/22 06:17:58;;;;;;;4.07;3.22;;;17.70;99.90;;;;;;5055169;28;20013;-74
2023/07/22 06:20:24;;;;;;;4.75;3.17;;;17.80;99.90;;;;;;5055984;28;20067;-73
2023/07/22 06:22:49;;;;;;;6.47;3.58;;;18.00;99.90;;;;;;5055926;28;20025;-73
2023/07/22 06:25:15;;;;;;;9.93;4.05;;;18.10;99.90;;;;;;5054942;28;20539;-74
2023/07/22 06:27:41;;;;;;;5.22;3.55;;;18.10;99.90;;;;;;5059750;28;20075;-73
2023/07/22 06:30:07;;;;;;;5.07;3.58;;;18.20;99.90;;;;;;5058517;28;20025;-74
2023/07/22 06:32:35;;;;;;;5.53;3.30;;;18.20;99.90;;;;;;5050351;28;20021;-73
2023/07/22 06:35:01;;;;;;;5.07;3.28;;;18.30;99.90;;;;;;5055146;28;20021;-73
2023/07/22 06:37:27;;;;;;;4.28;2.97;;;18.40;99.90;;;;;;5058409;28;20024;-72
2023/07/22 06:39:52;;;;;;;5.35;3.92;;;18.30;99.90;;;;;;5059631;28;20031;-73
2023/07/22 06:42:18;;;;;;;5.30;2.90;;;18.30;99.90;;;;;;5058501;28;20027;-73
2023/07/22 06:44:44;;;;;;;4.20;3.28;;;18.30;99.90;;;;;;5059293;28;20104;-72
2023/07/22 06:47:09;;;;;;;3.88;3.13;;;18.30;99.90;;;;;;5047595;28;20064;-73
2023/07/22 06:49:35;;;;;;;3.80;2.90;;;18.30;99.90;;;;;;5058971;28;20090;-73
2023/07/22 06:52:01;;;;;;;5.57;3.85;;;18.40;99.90;;;;;;5058665;28;20079;-73
2023/07/22 06:54:27;;;;;;;4.18;3.08;;;18.40;99.90;;;;;;5058000;28;20112;-74
2023/07/22 06:56:53;;;;;;;4.90;3.55;;;18.40;99.90;;;;;;5057891;28;20549;-73
2023/07/22 06:59:19;;;;;;;4.10;2.67;;;18.50;99.90;;;;;;5059233;28;20417;-74
2023/07/22 07:01:45;;;;;;;8.07;3.40;;;18.50;99.90;;;;;;5059237;28;20061;-73
2023/07/22 07:04:11;;;;;;;6.53;3.78;;;18.60;99.90;;;;;;5057784;28;20032;-73
2023/07/22 07:06:38;;;;;;;5.82;3.63;;;18.60;99.90;;;;;;5059272;28;20059;-74
2023/07/22 07:09:05;;;;;;;4.32;3.10;;;18.50;99.90;;;;;;5058829;28;20021;-73
2023/07/22 07:11:31;;;;;;;5.38;4.03;;;18.60;99.90;;;;;;5059108;28;21385;-73
2023/07/22 07:13:57;;;;;;;4.47;3.35;;;18.60;99.90;;;;;;5058704;28;20044;-73
2023/07/22 07:16:27;;;;;;;4.05;3.15;;;18.50;99.90;;;;;;5058906;28;20017;-73
2023/07/22 07:18:54;;;;;;;6.30;3.78;;;18.50;99.90;;;;;;5059092;28;20489;-73
2023/07/22 07:21:20;;;;;;;6.88;4.18;;;18.60;99.90;;;;;;5058732;28;20025;-74
2023/07/22 07:23:45;;;;;;;5.05;2.83;;;18.60;99.90;;;;;;5058445;28;20048;-74
2023/07/22 07:26:11;;;;;;;4.60;3.17;;;18.60;99.90;;;;;;5058811;28;20032;-73
2023/07/22 07:28:37;;;;;;;4.75;3.40;;;18.70;99.90;;;;;;5057283;28;20021;-72
2023/07/22 07:31:03;;;;;;;5.80;3.38;;;18.70;99.90;;;;;;5058606;28;20021;-72
2023/07/22 07:33:28;;;;;;;4.82;2.92;;;18.80;99.90;;;;;;5050044;28;20076;-72
2023/07/22 07:35:54;;;;;;;6.15;3.47;;;19.00;99.90;;;;;;5058413;28;20032;-73
2023/07/22 07:38:20;;;;;;;3.78;3.00;;;19.20;99.90;;;;;;5056284;28;20112;-73
2023/07/22 07:40:45;;;;;;;5.15;2.90;;;19.40;99.90;;;;;;5058421;28;20100;-73
2023/07/22 07:43:11;;;;;;;5.85;3.00;;;19.60;99.90;;;;;;5058323;28;20029;-73
2023/07/22 07:45:39;;;;;;;3.70;2.80;;;19.90;99.90;;;;;;5058319;28;20053;-72
2023/07/22 07:48:05;;;;;;;4.47;2.85;;;19.90;99.90;;;;;;5058375;28;20021;-72
2023/07/22 07:50:32;;;;;;;4.65;3.15;;;20.10;99.90;;;;;;5058112;28;20025;-73
2023/07/22 07:52:59;;;;;;;5.03;2.95;;;20.20;99.90;;;;;;5058037;28;20016;-73
2023/07/22 07:55:25;;;;;;;4.28;3.28;;;20.30;99.90;;;;;;5056751;28;20374;-71
2023/07/22 07:57:51;;;;;;;5.30;3.35;;;20.50;99.90;;;;;;5058028;28;20100;-72
2023/07/22 08:00:17;;;;;;;9.95;2.88;;;20.60;99.90;;;;;;5050336;28;20064;-72
2023/07/22 08:02:43;;;;;;;4.95;2.92;;;20.80;99.90;;;;;;5058165;28;20508;-72
2023/07/22 08:05:08;;;;;;;5.50;2.80;;;21.00;99.90;;;;;;5056810;28;20040;-69
2023/07/22 08:07:34;;;;;;;5.30;2.83;;;21.10;99.90;;;;;;5057801;28;20078;-71
2023/07/22 08:10:00;;;;;;;5.68;2.80;;;20.80;99.90;;;;;;5057970;28;20021;-71
2023/07/22 08:12:26;;;;;;;4.03;2.90;;;20.90;99.90;;;;;;5057903;28;20435;-71
2023/07/22 08:14:53;;;;;;;4.47;2.47;;;20.80;99.90;;;;;;5055994;28;20044;-71
2023/07/22 08:17:19;;;;;;;5.85;3.20;;;20.90;99.90;;;;;;5057903;28;20028;-71
2023/07/22 08:19:44;;;;;;;3.45;2.67;;;21.00;99.90;;;;;;5056070;28;20021;-71
2023/07/22 08:22:10;;;;;;;6.18;2.80;;;21.10;99.90;;;;;;5057270;28;20104;-72
2023/07/22 08:24:36;;;;;;;3.80;2.38;;;21.20;99.90;;;;;;5057908;28;20021;-71
2023/07/22 08:27:02;;;;;;;5.78;2.90;;;21.30;99.90;;;;;;5056295;28;20090;-71
2023/07/22 08:29:27;;;;;;;6.25;2.83;;;21.30;99.90;;;;;;5056076;28;20139;-71
2023/07/22 08:31:53;;;;;;;5.60;2.72;;;21.30;99.90;;;;;;5057338;28;20036;-71
2023/07/22 08:34:19;;;;;;;4.70;2.85;;;21.40;99.90;;;;;;5057621;28;20025;-71
2023/07/22 08:36:44;;;;;;;2.90;2.60;;;21.40;99.90;;;;;;5057170;28;20032;-71
2023/07/22 08:39:10;;;;;;;5.38;2.65;;;21.30;99.90;;;;;;5057836;28;20028;-71
2023/07/22 08:41:36;;;;;;;8.43;3.33;;;21.40;99.90;;;;;;5057464;28;20405;-72
2023/07/22 08:44:05;;;;;;;5.68;2.60;;;21.50;99.90;;;;;;5056174;28;20100;-72
2023/07/22 08:46:33;;;;;;;5.20;2.95;;;21.70;99.90;;;;;;5056040;28;20551;-71
2023/07/22 08:49:00;;;;;;;4.32;2.92;;;21.70;99.90;;;;;;5057436;28;20025;-72
2023/07/22 08:51:30;;;;;;;4.60;2.45;;;21.80;99.90;;;;;;5057283;28;20023;-71
2023/07/22 08:53:59;;;;;;;4.70;3.07;;;21.80;99.90;;;;;;5056950;28;20025;-72
2023/07/22 08:56:26;;;;;;;7.03;2.60;;;22.00;99.90;;;;;;5057087;28;20027;-71
2023/07/22 08:58:52;;;;;;;7.80;3.03;;;22.20;99.90;;;;;;5056939;28;20027;-73
2023/07/22 09:01:18;;;;;;;3.42;2.78;;;22.20;99.90;;;;;;5057084;28;20494;-72
2023/07/22 09:03:47;;;;;;;4.47;2.50;;;22.30;99.90;;;;;;5041751;28;20100;-71
2023/07/22 09:06:13;;;;;;;5.00;2.50;;;22.40;99.90;;;;;;5048945;28;20029;-71
2023/07/22 09:08:39;;;;;;;3.78;2.28;;;22.40;99.90;;;;;;5054231;28;20102;-72
2023/07/22 09:11:06;;;;;;;3.47;2.72;;;22.60;99.90;;;;;;5053642;28;20033;-72
2023/07/22 09:13:33;;;;;;;5.32;2.40;;;22.60;99.90;;;;;;5056733;28;20443;-73
2023/07/22 09:15:59;;;;;;;5.43;3.33;;;22.80;99.90;;;;;;5056907;28;20021;-72
2023/07/22 09:18:26;;;;;;;5.82;2.45;;;23.00;99.90;;;;;;5056784;28;20075;-73
2023/07/22 09:20:51;;;;;;;3.88;2.42;;;23.20;99.90;;;;;;5056740;28;20481;-74
2023/07/22 09:23:17;;;;;;;4.47;2.70;;;23.20;99.90;;;;;;5046834;28;20688;-72
2023/07/22 09:25:43;;;;;;;3.65;2.42;;;23.10;99.90;;;;;;5043859;28;20033;-72
2023/07/22 09:28:09;;;;;;;4.82;2.95;;;23.00;99.90;;;;;;5040227;28;20493;-72
2023/07/22 09:30:39;;;;;;;5.32;2.85;;;23.10;99.90;;;;;;5048048;28;20037;-73
2023/07/22 09:33:07;;;;;;;4.27;2.53;;;23.30;99.90;;;;;;5045363;28;20735;-72
2023/07/22 09:35:49;;;;;;;3.72;2.50;;;23.40;99.90;;;;;;5047093;28;20466;-72
2023/07/22 09:38:25;;;;;;;6.50;2.83;;;23.60;99.90;;;;;;5044702;28;20017;-72
2023/07/22 09:40:52;;;;;;;4.07;2.55;;;23.60;99.90;;;;;;5045626;28;20022;-74
2023/07/22 09:43:17;;;;;;;3.80;2.50;;;23.50;99.90;;;;;;5045904;28;20021;-73
2023/07/22 09:45:47;;;;;;;4.63;2.38;;;23.40;99.90;;;;;;5044401;28;20037;-73
2023/07/22 09:48:13;;;;;;;7.37;2.60;;;23.60;99.90;;;;;;5044320;28;20037;-73
2023/07/22 09:50:38;;;;;;;3.75;2.20;;;23.60;99.90;;;;;;5046123;28;20275;-74
2023/07/22 09:53:05;;;;;;;3.63;2.40;;;23.80;99.90;;;;;;5045659;28;20032;-73
2023/07/22 09:55:32;;;;;;;5.65;2.78;;;24.00;99.90;;;;;;5044079;28;20029;-74
2023/07/22 09:58:03;;;;;;;2.53;2.00;;;24.10;99.90;;;;;;5044372;28;20052;-73
2023/07/22 10:00:34;;;;;;;3.17;2.47;;;24.10;99.90;;;;;;5047398;28;20025;-73
2023/07/22 10:03:01;;;;;;;5.68;2.28;;;24.20;99.90;;;;;;5057561;28;20025;-73
2023/07/22 10:05:31;;;;;;;4.20;2.55;;;24.30;99.90;;;;;;5060514;28;20104;-73
2023/07/22 10:07:58;;;;;;;4.60;2.80;;;24.40;99.90;;;;;;5058760;28;20021;-73
2023/07/22 10:10:33;;;;;;;5.07;2.28;;;24.60;99.90;;;;;;5060156;28;20544;-73
2023/07/22 10:12:59;;;;;;;7.47;2.80;;;24.80;99.90;;;;;;5043788;28;20063;-73
2023/07/22 10:15:28;;;;;;;5.00;2.50;;;24.90;99.90;;;;;;5043602;28;20092;-73
2023/07/22 10:17:55;;;;;;;6.35;2.13;;;25.10;99.90;;;;;;5038154;28;20021;-74
2023/07/22 10:20:23;;;;;;;2.60;2.00;;;25.30;99.90;;;;;;5053720;28;20385;-73
2023/07/22 10:22:49;;;;;;;3.55;2.38;;;25.30;99.90;;;;;;5052154;28;20155;-73
2023/07/22 10:25:16;;;;;;;4.10;2.30;;;25.30;99.90;;;;;;5047147;28;20033;-74
2023/07/22 10:27:43;;;;;;;3.15;2.20;;;25.30;99.90;;;;;;5057561;28;20025;-73
2023/07/22 10:30:13;;;;;;;3.95;2.10;;;25.30;99.90;;;;;;5050403;28;20025;-73
2023/07/22 10:32:45;;;;;;;7.68;2.47;;;25.40;99.90;;;;;;5051232;28;20032;-73
2023/07/22 10:35:16;;;;;;;4.32;1.80;;;25.30;99.90;;;;;;5042923;28;20505;-72
2023/07/22 10:37:45;;;;;;;7.82;2.10;;;25.50;99.90;;;;;;5057905;28;20021;-73
2023/07/22 10:40:25;;;;;;;4.88;2.50;;;25.60;99.90;;;;;;5057178;28;20370;-73
2023/07/22 10:42:52;;;;;;;;;;;25.60;99.90;;;;;;5057784;28;20547;-73
2023/07/22 10:45:33;;;;;;;3.28;2.45;;;25.80;99.90;;;;;;5057106;28;19905;-74
2023/07/22 10:48:04;;;;;;;3.28;2.13;;;26.00;99.90;;;;;;5059524;28;20094;-73
2023/07/22 10:50:51;;;;;;;4.07;2.40;;;26.00;99.90;;;;;;5058431;28;20029;-73
2023/07/22 10:53:26;;;;;;;5.65;2.58;;;26.00;99.90;;;;;;5057926;28;20025;-72
2023/07/22 10:56:11;;;;;;;4.95;2.42;;;26.20;99.90;;;;;;5059461;28;20053;-73
2023/07/22 10:58:46;;;;;;;3.80;2.50;;;26.20;99.90;;;;;;5047916;28;20048;-72
2023/07/22 11:01:27;;;;;;;6.32;2.90;;;26.20;99.90;;;;;;5059305;28;20032;-72
2023/07/22 11:04:17;;;;;;;5.28;2.17;;;26.20;99.90;;;;;;5059356;28;20032;-73
2023/07/22 11:06:45;;;;;;;3.77;2.40;;;26.30;99.90;;;;;;5047573;28;20032;-72
2023/07/22 11:09:30;;;;;;;3.92;2.08;;;26.10;99.90;;;;;;5057729;28;20613;-73
2023/07/22 11:12:06;;;;;;;5.38;2.45;;;25.80;99.90;;;;;;5056741;28;20104;-72
2023/07/22 11:14:37;;;;;;;5.88;2.72;;;26.10;99.90;;;;;;5058577;28;20102;-72
2023/07/22 11:17:04;;;;;;;6.65;2.45;;;26.20;99.90;;;;;;5059120;28;20493;-73
2023/07/22 11:19:31;;;;;;;5.47;2.60;;;26.50;99.80;;;;;;5059265;28;20021;-73
2023/07/22 11:21:57;;;;;;;5.25;2.92;;;26.60;99.60;;;;;;5056175;28;20492;-72
2023/07/22 11:24:24;;;;;;;4.28;2.42;;;26.90;99.90;;;;;;5054953;28;20052;-73
2023/07/22 11:26:51;;;;;;;6.03;2.33;;;27.10;99.50;;;;;;5057623;28;20485;-73
2023/07/22 11:29:17;;;;;;;3.83;2.15;;;27.20;99.90;;;;;;5058508;28;20024;-74
2023/07/22 11:31:47;;;;;;;5.45;2.17;;;27.20;98.80;;;;;;5058211;28;20021;-73
2023/07/22 11:34:13;;;;;;;;;;;27.30;98.60;;;;;;5057050;28;20113;-73
2023/07/22 11:36:40;;;;;;;3.53;2.08;;;27.20;97.00;;;;;;5057982;28;19964;-73
2023/07/22 11:39:09;;;;;;;3.95;2.38;;;26.90;98.10;;;;;;5056393;28;20028;-74
2023/07/22 11:41:35;;;;;;;4.43;2.20;;;26.70;97.90;;;;;;5058633;28;20017;-73
2023/07/22 11:44:07;;;;;;;3.72;2.22;;;26.60;99.80;;;;;;5050609;28;20073;-74
2023/07/22 11:46:34;;;;;;;7.00;2.30;;;26.80;99.70;;;;;;5054083;28;20025;-74
2023/07/22 11:48:59;;;;;;;3.80;2.67;;;27.00;98.90;;;;;;5058526;28;20029;-74
2023/07/22 12:13:01;;;;;;;4.35;2.20;;;26.90;98.60;;;;;;5006796;28;20922;-76
2023/07/22 12:15:26;;;;;;;6.32;2.53;;;28.10;96.80;;;;;;5049546;28;20071;-76
2023/07/22 13:23:06;;;;;;;5.28;2.70;;;28.40;92.50;;;;;;5104308;27;20417;-77
2023/07/22 13:25:32;;;;;;;3.72;2.28;;;28.50;94.30;;;;;;5091390;28;20029;-76
2023/07/22 13:27:57;;;;;;;3.33;2.40;;;28.60;94.40;;;;;;5091041;28;20024;-75
2023/07/22 13:30:23;;;;;;;5.72;2.25;;;28.90;92.50;;;;;;5090856;28;20512;-75
2023/07/22 13:32:49;;;;;;;4.38;2.58;;;28.90;92.00;;;;;;5092496;28;20020;-74
2023/07/22 13:35:15;;;;;;;6.53;2.35;;;28.90;91.80;;;;;;5092833;28;20021;-74
2023/07/22 13:37:40;;;;;;;3.67;2.40;;;28.80;92.40;;;;;;5092530;28;20024;-76
2023/07/22 13:40:10;;;;;;;4.70;2.50;;;28.90;93.10;;;;;;5091220;28;20030;-76
2023/07/22 13:42:36;;;;;;;4.70;2.35;;;28.90;92.00;;;;;;5090671;28;20031;-75
2023/07/22 13:45:02;;;;;;;3.65;2.40;;;29.10;92.40;;;;;;5092573;28;20059;-75
2023/07/22 13:47:28;;;;;;;3.83;2.50;;;29.20;92.20;;;;;;5090148;28;20024;-76
2023/07/22 13:49:54;;;;;;;3.55;2.30;;;29.20;91.70;;;;;;5087482;28;20055;-76
2023/07/22 13:52:19;;;;;;;4.35;2.50;;;29.30;92.10;;;;;;5091816;28;20012;-75
2023/07/22 13:54:45;;;;;;;4.68;2.28;;;29.50;90.20;;;;;;5090610;28;20038;-75
2023/07/22 13:57:12;;;;;;;3.15;2.08;;;29.50;91.40;;;;;;5092085;28;20434;-75
2023/07/22 13:59:37;;;;;;;5.80;2.65;;;29.40;86.80;;;;;;5092100;28;20432;-74
2023/07/22 14:02:03;;;;;;;5.95;2.65;;;29.50;90.30;;;;;;5092066;28;20028;-75
2023/07/22 14:04:29;;;;;;;3.42;2.30;;;29.50;88.80;;;;;;5092082;28;20032;-75
2023/07/22 14:06:54;;;;;;;6.70;2.58;;;29.60;90.30;;;;;;5091884;28;20024;-75
2023/07/22 14:09:20;;;;;;;4.40;2.50;;;29.70;90.60;;;;;;5092033;28;20392;-74
2023/07/22 14:11:46;;;;;;;4.45;2.45;;;29.80;90.00;;;;;;5091590;28;20051;-73
2023/07/22 14:14:12;;;;;;;3.88;2.83;;;30.00;86.20;;;;;;5099311;28;20039;-74